Terminal Aerodrome Forecast
Issued by NWS Paducah, KY

Home | Current Version | Previous Version | Text Only | Print | Product List | Glossary On
Versions: 1 2 3 4 5 6 7 8 9 10 11 12 13 14 15 16 17
125
FTUS43 KPAH 030520
TAFPAH
TAF
KPAH 030520Z 0306/0406 33003KT P6SM SCT025 BKN050
      TEMPO 0306/0310 BKN025
     FM031000 35003KT 6SM BR SCT050
     FM031500 35006KT P6SM BKN040
     FM040200 VRB02KT P6SM SCT040=

USA.gov is the U.S. government's official web portal to all federal, state and local government web resources and services.